Time;durP1;ratioP1;P1;durP2;ratioP2;P2;SDS_P1;SDS_P2;PMS_P1;PMS_P2;Temp;Humidity;BMP_temperature;BMP_pressure;BME280_temperature;BME280_humidity;BME280_pressure;Samples;Min_cycle;Max_cycle;Signal;HPM_P1;HPM_P2
2022/04/11 00:01:54;;;;;;;4.47;1.77;;;;;;;15.98;63.88;99192.28;5073257;28;20458;-75
2022/04/11 00:04:21;;;;;;;4.50;1.10;;;;;;;15.77;64.03;99150.97;5075019;28;20053;-74
2022/04/11 00:06:48;;;;;;;3.03;1.37;;;;;;;15.57;65.73;99165.91;5068222;28;20138;-75
2022/04/11 00:09:15;;;;;;;2.03;1.00;;;;;;;15.51;66.00;99165.28;5069550;28;20131;-74
2022/04/11 00:11:42;;;;;;;5.33;1.47;;;;;;;15.59;66.13;99174.84;5071469;28;20140;-74
2022/04/11 00:14:09;;;;;;;4.83;3.17;;;;;;;15.37;67.03;99162.78;5064259;28;20645;-73
2022/04/11 00:16:36;;;;;;;1.30;0.60;;;;;;;15.24;68.26;99166.72;5071274;28;20127;-75
2022/04/11 00:19:03;;;;;;;0.80;0.70;;;;;;;15.23;68.59;99172.72;5067092;28;20051;-74
2022/04/11 00:21:30;;;;;;;1.73;0.80;;;;;;;14.87;69.89;99152.53;5067970;28;20146;-76
2022/04/11 00:23:57;;;;;;;2.57;0.60;;;;;;;14.72;70.03;99124.22;5066622;28;20135;-75
2022/04/11 00:26:24;;;;;;;3.03;0.80;;;;;;;14.81;71.28;99165.13;5065082;28;20088;-77
2022/04/11 00:28:51;;;;;;;5.80;3.33;;;;;;;14.87;71.04;99166.56;5071247;28;20040;-76
2022/04/11 00:31:18;;;;;;;4.43;4.13;;;;;;;14.61;71.64;99118.19;5071002;28;20044;-74
2022/04/11 00:33:45;;;;;;;5.77;2.20;;;;;;;14.75;72.23;99149.63;5069240;28;20045;-75
2022/04/11 00:36:13;;;;;;;5.03;0.80;;;;;;;14.89;72.38;99160.59;5072852;28;20462;-75
2022/04/11 00:38:39;;;;;;;1.20;1.10;;;;;;;14.64;73.12;99134.34;5069456;28;20234;-74
2022/04/11 00:41:06;;;;;;;4.77;1.57;;;;;;;14.66;73.11;99137.63;5071082;28;20151;-75
2022/04/11 00:43:37;;;;;;;4.10;1.30;;;;;;;14.77;73.35;99155.75;5064319;28;20076;-75
2022/04/11 00:46:06;;;;;;;3.17;1.03;;;;;;;14.32;75.43;99122.63;5069684;28;20147;-76
2022/04/11 00:48:34;;;;;;;4.17;0.83;;;;;;;14.40;75.94;99135.00;5073044;28;20083;-75
2022/04/11 00:51:07;;;;;;;2.17;1.17;;;;;;;14.20;76.98;99136.59;5072714;28;20072;-75
2022/04/11 00:53:38;;;;;;;1.60;0.53;;;;;;;14.06;77.20;99091.13;5061523;28;20144;-75
2022/04/11 00:56:08;;;;;;;0.50;0.50;;;;;;;14.08;78.15;99091.56;5067252;28;20056;-75
2022/04/11 00:58:36;;;;;;;2.53;1.40;;;;;;;13.90;78.96;99100.09;5076527;28;20152;-75
2022/04/11 01:01:04;;;;;;;2.07;1.80;;;;;;;13.78;79.78;99071.97;5066448;28;20158;-76
2022/04/11 01:03:32;;;;;;;4.70;1.20;;;;;;;14.01;79.39;99085.69;5065427;28;20060;-77
2022/04/11 01:06:00;;;;;;;3.37;1.47;;;;;;;13.84;80.08;99070.59;5070827;28;20142;-78
2022/04/11 01:08:27;;;;;;;6.67;2.67;;;;;;;13.71;80.91;99078.09;5069084;28;20049;-77
2022/04/11 01:10:55;;;;;;;2.07;1.90;;;;;;;13.65;81.16;99067.41;5066472;28;20132;-78
2022/04/11 01:13:22;;;;;;;2.00;0.73;;;;;;;13.16;81.93;98996.81;5064144;28;20052;-77
2022/04/11 01:16:03;;;;;;;2.20;1.60;;;;;;;13.34;81.51;99020.84;5058475;28;20313;-78
2022/04/11 01:18:34;;;;;;;3.83;1.93;;;;;;;13.77;80.92;99073.09;5072299;28;20686;-78
2022/04/11 01:21:02;;;;;;;3.17;1.60;;;;;;;13.74;80.40;99051.31;5066878;28;20087;-78
2022/04/11 01:23:29;;;;;;;7.40;3.07;;;;;;;13.68;80.76;99049.91;5070072;28;21313;-79
2022/04/11 01:25:57;;;;;;;12.43;2.90;;;;;;;13.84;80.08;99059.34;5074002;28;20076;-79
2022/04/11 01:28:24;;;;;;;9.53;2.83;;;;;;;13.89;80.26;99061.97;5066710;28;20281;-77
2022/04/11 01:30:53;;;;;;;5.13;3.10;;;;;;;13.99;79.82;99069.19;5050965;28;20139;-77
2022/04/11 01:33:27;;;;;;;12.25;2.63;;;;;;;14.04;79.68;99070.97;5069062;28;20048;-76
2022/04/11 01:35:54;;;;;;;2.23;1.80;;;;;;;13.86;80.31;99062.66;5066125;28;20076;-76
2022/04/11 01:38:21;;;;;;;8.67;2.13;;;;;;;13.70;80.34;99039.97;5068374;28;20080;-77
2022/04/11 01:40:54;;;;;;;2.90;2.03;;;;;;;13.86;80.10;99059.84;5066218;28;20551;-76
2022/04/11 01:43:22;;;;;;;9.00;3.47;;;;;;;14.06;79.64;99057.44;5062178;28;20076;-77
2022/04/11 01:45:50;;;;;;;8.53;3.70;;;;;;;13.97;79.61;99063.91;5059877;28;20439;-78
2022/04/11 01:48:17;;;;;;;2.60;1.73;;;;;;;13.87;79.28;99027.81;5068897;28;20136;-79
2022/04/11 01:50:45;;;;;;;0.97;0.80;;;;;;;13.82;80.28;99044.03;5069928;28;20128;-78
2022/04/11 01:53:18;;;;;;;2.70;1.30;;;;;;;13.67;80.22;99031.41;5061938;28;20080;-75
2022/04/11 01:55:46;;;;;;;2.00;1.03;;;;;;;13.63;80.25;99017.22;5054623;28;20091;-75
2022/04/11 01:58:13;;;;;;;3.10;1.80;;;;;;;13.60;80.14;98989.84;5072856;28;20139;-75
2022/04/11 02:00:41;;;;;;;3.07;2.23;;;;;;;13.93;79.46;99022.84;5066130;28;20159;-75
2022/04/11 02:03:09;;;;;;;6.93;2.60;;;;;;;14.11;78.94;99026.34;5049895;28;20068;-75
2022/04/11 02:05:36;;;;;;;2.80;1.47;;;;;;;13.63;79.25;98974.34;5067824;28;20053;-74
2022/04/11 02:08:05;;;;;;;2.60;1.43;;;;;;;14.06;78.77;99009.72;5063663;28;20147;-74
2022/04/11 02:10:32;;;;;;;5.18;2.30;;;;;;;14.09;78.54;99023.06;5062185;28;20079;-75
2022/04/11 02:13:01;;;;;;;6.57;2.37;;;;;;;13.96;78.35;99017.38;5070994;28;20055;-75
2022/04/11 02:15:28;;;;;;;1.60;1.20;;;;;;;14.09;77.79;99017.47;5063640;28;20055;-75
2022/04/11 02:17:55;;;;;;;2.27;1.27;;;;;;;14.18;77.65;98999.34;5065067;28;20140;-75
2022/04/11 02:20:22;;;;;;;3.33;1.77;;;;;;;14.03;78.05;99001.97;5073729;28;20452;-75
2022/04/11 02:22:50;;;;;;;1.70;1.00;;;;;;;13.96;77.75;98982.88;5086708;28;20079;-76
2022/04/11 02:25:19;;;;;;;2.97;1.27;;;;;;;14.10;77.43;98991.03;5082316;28;20052;-76
2022/04/11 02:27:48;;;;;;;2.37;1.00;;;;;;;14.16;77.66;99010.13;5087594;28;20048;-75
2022/04/11 02:30:16;;;;;;;3.33;1.83;;;;;;;14.04;77.96;99000.81;5072316;28;20545;-75
2022/04/11 02:32:44;;;;;;;3.83;1.50;;;;;;;13.91;78.46;98983.91;5051054;28;20080;-75
2022/04/11 02:35:12;;;;;;;7.17;1.77;;;;;;;14.07;77.98;98991.69;5067760;28;20044;-75
2022/04/11 02:37:38;;;;;;;1.47;1.23;;;;;;;14.09;78.00;98989.38;5071538;28;20496;-75
2022/04/11 02:40:10;;;;;;;4.83;1.40;;;;;;;14.20;77.70;99015.88;5057212;28;20083;-75
2022/04/11 02:42:41;;;;;;;4.20;1.37;;;;;;;14.22;77.43;98999.50;5069851;28;20048;-75
2022/04/11 02:45:11;;;;;;;3.70;1.47;;;;;;;14.23;77.74;98992.72;5070614;28;20500;-75
2022/04/11 02:47:39;;;;;;;4.07;1.50;;;;;;;14.04;78.17;98992.38;5064736;28;20135;-75
2022/04/11 02:50:07;;;;;;;1.30;0.90;;;;;;;13.98;78.60;98998.22;5070941;28;20044;-78
2022/04/11 02:52:34;;;;;;;0.80;0.80;;;;;;;14.04;78.82;99000.81;5067208;28;20084;-78
2022/04/11 02:55:01;;;;;;;4.40;1.30;;;;;;;14.06;78.38;98987.25;5072955;28;20048;-77
2022/04/11 02:57:29;;;;;;;6.17;1.53;;;;;;;14.12;77.87;98985.88;5060183;28;20115;-76
2022/04/11 02:59:56;;;;;;;4.67;1.87;;;;;;;14.35;77.46;98986.34;5054420;28;20064;-76
2022/04/11 03:02:23;;;;;;;2.43;1.67;;;;;;;14.18;77.50;98973.28;5067720;28;20083;-76
2022/04/11 03:04:50;;;;;;;3.13;1.67;;;;;;;14.25;77.35;98998.81;5063445;28;20148;-75
2022/04/11 03:07:18;;;;;;;4.57;1.87;;;;;;;14.27;77.44;98996.50;5070511;28;20132;-75
2022/04/11 03:09:45;;;;;;;3.33;1.80;;;;;;;14.48;76.76;99009.69;5070558;28;20135;-75
2022/04/11 03:12:12;;;;;;;5.33;0.90;;;;;;;14.40;77.26;99008.63;5063531;28;20698;-75
2022/04/11 03:14:39;;;;;;;2.70;1.50;;;;;;;14.37;77.82;99006.50;5069217;28;20049;-78
2022/04/11 03:17:06;;;;;;;3.90;2.03;;;;;;;14.28;78.62;99003.75;5069228;28;20060;-77
2022/04/11 03:19:33;;;;;;;2.63;1.60;;;;;;;14.00;78.61;98958.56;5067349;28;20141;-78
2022/04/11 03:21:59;;;;;;;2.50;1.57;;;;;;;13.65;79.45;98924.34;5069562;28;20135;-77
2022/04/11 03:24:26;;;;;;;3.07;2.77;;;;;;;13.93;80.05;98989.97;5073022;28;20145;-77
2022/04/11 03:26:53;;;;;;;6.13;2.03;;;;;;;14.06;80.24;98990.06;5068755;28;20077;-75
2022/04/11 03:29:20;;;;;;;6.27;2.03;;;;;;;14.10;80.34;98996.63;5069069;28;20463;-76
2022/04/11 03:31:48;;;;;;;2.90;1.10;;;;;;;14.10;80.30;99005.88;5081033;28;20135;-77
2022/04/11 03:34:15;;;;;;;2.20;1.10;;;;;;;13.91;80.95;98972.69;5073627;28;20045;-76
2022/04/11 03:36:42;;;;;;;1.87;1.30;;;;;;;13.91;81.11;98988.66;5065512;28;20844;-75
2022/04/11 03:39:08;;;;;;;4.67;1.70;;;;;;;13.97;81.00;98981.69;5068041;28;20040;-76
2022/04/11 03:41:36;;;;;;;1.83;1.37;;;;;;;14.12;80.96;99000.75;5073838;28;20562;-75
2022/04/11 03:44:03;;;;;;;3.63;1.90;;;;;;;13.94;81.52;98988.00;5085326;28;20130;-75
2022/04/11 03:46:30;;;;;;;5.57;5.27;;;;;;;13.72;81.60;98975.13;5073305;28;20135;-75
2022/04/11 03:48:57;;;;;;;3.27;2.57;;;;;;;13.67;81.75;98997.75;5064012;28;20123;-74
2022/04/11 03:51:24;;;;;;;1.20;0.90;;;;;;;13.64;81.52;98956.34;5069246;28;20099;-75
2022/04/11 03:53:50;;;;;;;1.43;0.90;;;;;;;13.55;81.61;98980.84;5072950;28;20098;-76
2022/04/11 03:56:17;;;;;;;17.90;16.90;;;;;;;13.48;81.31;98953.31;5075480;28;20131;-75
2022/04/11 03:58:44;;;;;;;10.27;5.50;;;;;;;13.56;81.47;98954.41;5071727;28;20442;-76
2022/04/11 04:01:12;;;;;;;5.03;1.30;;;;;;;13.57;81.21;98972.88;5068566;28;20068;-76
2022/04/11 04:03:40;;;;;;;2.67;1.30;;;;;;;13.62;80.71;98939.03;5054020;28;20076;-77
2022/04/11 04:06:07;;;;;;;5.07;1.50;;;;;;;13.85;80.58;98988.06;5068781;28;20499;-78
2022/04/11 04:08:34;;;;;;;1.97;1.10;;;;;;;13.75;80.15;98954.81;5074643;28;20049;-77
2022/04/11 04:11:00;;;;;;;1.73;1.17;;;;;;;13.86;80.11;98978.47;5073959;28;20139;-76
2022/04/11 04:13:35;;;;;;;0.87;0.67;;;;;;;13.85;80.08;98985.25;5075729;28;20456;-78
2022/04/11 04:16:02;;;;;;;15.43;14.40;;;;;;;13.67;79.87;98938.81;5068874;28;20102;-77
2022/04/11 04:18:30;;;;;;;15.87;14.93;;;;;;;13.96;79.71;98978.06;5074513;28;20058;-77
2022/04/11 04:20:57;;;;;;;17.13;15.33;;;;;;;13.68;79.68;98926.47;5069020;28;20575;-73
2022/04/11 04:23:24;;;;;;;15.27;14.47;;;;;;;14.15;79.79;98994.44;5038727;28;20067;-74
2022/04/11 04:25:51;;;;;;;15.40;14.50;;;;;;;14.06;79.79;98979.66;5071575;28;20123;-74
2022/04/11 04:28:18;;;;;;;15.77;14.63;;;;;;;14.23;79.59;98989.94;5070164;28;20130;-74
2022/04/11 04:30:48;;;;;;;14.87;13.77;;;;;;;14.04;79.58;98965.13;5055848;28;20040;-73
2022/04/11 04:33:15;;;;;;;15.77;14.90;;;;;;;14.15;79.52;98979.56;5066986;28;20068;-74
2022/04/11 04:35:42;;;;;;;14.67;13.43;;;;;;;14.24;79.47;98997.19;5067878;28;20053;-75
2022/04/11 04:38:09;;;;;;;13.73;13.00;;;;;;;14.19;79.43;98994.59;5065265;28;20072;-76
2022/04/11 04:40:36;;;;;;;13.37;12.30;;;;;;;14.06;79.19;98982.47;5073293;28;20095;-75
2022/04/11 04:43:04;;;;;;;12.17;11.67;;;;;;;14.05;79.29;98982.78;5071858;28;20083;-75
2022/04/11 04:45:31;;;;;;;12.43;11.40;;;;;;;14.01;79.29;98985.47;5080223;28;20083;-76
2022/04/11 04:47:58;;;;;;;12.03;10.63;;;;;;;14.16;79.16;98995.28;5072302;28;20104;-75
2022/04/11 04:50:25;;;;;;;10.97;10.30;;;;;;;14.05;79.31;98979.97;5068691;28;20568;-75
2022/04/11 04:52:51;;;;;;;11.57;10.53;;;;;;;13.94;79.19;98983.19;5074328;28;20135;-74
2022/04/11 04:55:19;;;;;;;11.37;10.53;;;;;;;13.66;79.26;98909.97;5069006;28;20044;-75
2022/04/11 04:57:45;;;;;;;15.00;10.77;;;;;;;14.20;79.25;98993.41;5070131;28;20146;-76
2022/04/11 05:00:12;;;;;;;12.30;11.17;;;;;;;14.11;79.20;98961.78;5070645;28;20552;-76
2022/04/11 05:02:39;;;;;;;12.50;11.33;;;;;;;14.18;79.22;98981.69;5073107;28;20094;-76
2022/04/11 05:05:09;;;;;;;12.30;10.67;;;;;;;13.96;79.45;98940.78;5066965;28;20053;-75
2022/04/11 05:07:37;;;;;;;12.18;11.32;;;;;;;14.20;79.44;98985.81;5069727;28;20044;-75
2022/04/11 05:10:09;;;;;;;10.57;9.57;;;;;;;13.99;79.44;98974.59;5068931;28;20052;-75
2022/04/11 05:12:44;;;;;;;10.17;9.57;;;;;;;13.94;79.28;98988.81;5066632;28;20131;-74
2022/04/11 05:15:12;;;;;;;10.07;9.30;;;;;;;13.98;79.47;98986.13;5065356;28;20431;-76
2022/04/11 05:17:40;;;;;;;11.10;10.10;;;;;;;14.00;79.40;98978.22;5064314;28;20098;-76
2022/04/11 05:20:08;;;;;;;10.20;9.70;;;;;;;13.83;79.52;98951.09;5066821;28;20131;-74
2022/04/11 05:22:36;;;;;;;12.93;11.00;;;;;;;13.99;79.58;98987.81;5068571;28;20049;-75
2022/04/11 05:25:03;;;;;;;10.33;9.53;;;;;;;14.04;79.76;98990.38;5069153;28;20128;-74
2022/04/11 05:27:30;;;;;;;10.87;9.90;;;;;;;14.09;79.45;98980.97;5070262;28;20080;-74
2022/04/11 05:29:57;;;;;;;11.33;10.43;;;;;;;14.21;79.32;98993.06;5070722;28;20052;-71
2022/04/11 05:32:23;;;;;;;10.13;9.33;;;;;;;14.02;79.41;98966.63;5069859;28;20067;-72
2022/04/11 05:34:50;;;;;;;11.60;10.50;;;;;;;14.12;79.35;98988.66;5065831;28;20087;-74
2022/04/11 05:37:17;;;;;;;10.60;9.67;;;;;;;13.94;79.18;98941.09;5064578;28;20131;-72
2022/04/11 05:39:44;;;;;;;9.77;9.27;;;;;;;14.06;79.35;98982.47;5070602;28;20413;-75
2022/04/11 05:42:11;;;;;;;10.10;9.30;;;;;;;14.07;79.19;98980.47;5065524;28;20128;-75
2022/04/11 05:44:38;;;;;;;10.70;9.77;;;;;;;14.13;79.13;98990.34;5066213;28;20083;-75
2022/04/11 05:47:05;;;;;;;9.73;9.20;;;;;;;14.08;79.12;98987.72;5068573;28;20052;-73
2022/04/11 05:49:31;;;;;;;9.23;8.17;;;;;;;14.02;79.29;98994.69;5065423;28;20036;-74
2022/04/11 05:51:58;;;;;;;8.57;8.17;;;;;;;14.07;78.85;98974.84;5063390;28;20060;-75
2022/04/11 05:54:25;;;;;;;9.03;8.53;;;;;;;13.99;79.27;98985.81;5064750;28;20131;-76
2022/04/11 05:56:55;;;;;;;9.50;8.70;;;;;;;13.98;79.21;98994.56;5067589;28;20135;-76
2022/04/11 05:59:22;;;;;;;8.95;8.45;;;;;;;13.96;79.32;98994.09;5070528;28;20056;-75
2022/04/11 06:01:49;;;;;;;10.30;9.70;;;;;;;13.96;79.31;98996.91;5053430;28;20767;-75
2022/04/11 06:04:16;;;;;;;8.90;8.40;;;;;;;14.08;79.19;98998.94;5064317;28;20051;-76
2022/04/11 06:06:43;;;;;;;13.40;12.53;;;;;;;14.05;79.09;98994.00;5064365;28;20098;-77
2022/04/11 06:09:09;;;;;;;9.40;8.80;;;;;;;13.99;79.00;98999.03;5066009;28;20051;-76
2022/04/11 06:11:36;;;;;;;8.80;8.30;;;;;;;13.95;79.06;98984.03;5054033;28;20131;-76
2022/04/11 06:14:03;;;;;;;9.10;8.60;;;;;;;13.90;79.13;98993.47;5062450;28;20128;-76
2022/04/11 06:16:30;;;;;;;9.63;8.80;;;;;;;13.87;79.07;98994.16;5064817;28;20140;-75
2022/04/11 06:18:57;;;;;;;9.60;9.00;;;;;;;13.95;79.11;98993.28;5067747;28;20048;-76
2022/04/11 06:21:24;;;;;;;9.23;8.67;;;;;;;13.81;79.24;98984.31;5065866;28;20136;-75
2022/04/11 06:23:51;;;;;;;9.53;8.77;;;;;;;13.84;78.99;98969.56;5068366;28;20098;-76
2022/04/11 06:26:18;;;;;;;11.83;9.53;;;;;;;13.77;79.13;98963.69;5063713;28;20458;-76
2022/04/11 06:28:46;;;;;;;9.53;9.03;;;;;;;13.94;78.95;98983.19;5066536;28;20054;-75
2022/04/11 06:31:15;;;;;;;9.80;9.10;;;;;;;14.02;78.83;98955.41;5070085;28;20079;-76
2022/04/11 06:33:42;;;;;;;10.23;9.55;;;;;;;14.15;78.57;98971.16;5077746;28;21206;-75
2022/04/11 06:36:16;;;;;;;10.70;10.03;;;;;;;14.32;78.40;98975.78;5052496;28;20419;-77
2022/04/11 06:38:43;;;;;;;10.43;8.80;;;;;;;14.37;78.54;98956.75;5068953;28;20053;-76
2022/04/11 06:41:10;;;;;;;8.77;8.27;;;;;;;14.53;78.39;98964.56;5069109;28;20556;-75
2022/04/11 06:43:37;;;;;;;11.53;10.83;;;;;;;14.43;77.76;98951.75;5062745;28;20458;-74
2022/04/11 06:46:04;;;;;;;9.10;8.60;;;;;;;14.39;77.89;98946.00;5065194;28;20082;-76
2022/04/11 06:48:31;;;;;;;9.73;9.00;;;;;;;14.42;77.58;98953.72;5060909;28;20060;-74
2022/04/11 06:50:57;;;;;;;9.53;9.10;;;;;;;14.34;77.41;98908.88;5067949;28;20194;-75
2022/04/11 06:53:24;;;;;;;11.57;10.97;;;;;;;14.84;77.42;98953.66;5061409;28;20088;-76
2022/04/11 06:55:51;;;;;;;10.93;10.40;;;;;;;14.95;76.87;98947.59;5059660;28;20040;-74
2022/04/11 06:58:24;;;;;;;10.43;9.63;;;;;;;14.81;77.10;98898.16;5065168;28;20489;-75
2022/04/11 07:00:51;;;;;;;11.17;10.67;;;;;;;15.17;77.08;98944.31;5070464;28;20125;-78
2022/04/11 07:03:18;;;;;;;7.73;7.23;;;;;;;15.15;76.69;98936.25;5073384;28;20495;-80
2022/04/11 07:05:45;;;;;;;12.00;11.10;;;;;;;15.09;76.50;98948.06;5072902;28;20064;-79
2022/04/11 07:08:12;;;;;;;9.43;9.00;;;;;;;14.81;76.15;98954.34;5072555;28;20076;-79
2022/04/11 07:10:40;;;;;;;8.23;7.73;;;;;;;14.66;76.21;98936.16;5072865;28;20130;-77
2022/04/11 07:13:07;;;;;;;7.30;7.00;;;;;;;14.64;76.03;98934.88;5072655;28;20587;-77
2022/04/11 07:15:35;;;;;;;8.40;7.90;;;;;;;14.53;76.63;98936.47;5068838;28;20234;-77
2022/04/11 07:18:02;;;;;;;10.37;9.77;;;;;;;14.43;76.60;98952.56;5069712;28;20044;-77
2022/04/11 07:20:29;;;;;;;8.33;7.60;;;;;;;14.45;76.81;98943.78;5068407;28;20559;-79
2022/04/11 07:22:55;;;;;;;7.90;7.50;;;;;;;14.50;76.59;98954.00;5070672;28;20080;-77
2022/04/11 07:25:24;;;;;;;8.37;7.77;;;;;;;14.44;76.92;98951.41;5072974;28;20084;-75
2022/04/11 07:27:52;;;;;;;8.17;7.67;;;;;;;14.43;77.01;98946.97;5071773;28;20885;-77
2022/04/11 07:30:19;;;;;;;7.00;6.60;;;;;;;14.48;76.63;98950.72;5064443;28;20132;-77
2022/04/11 07:32:45;;;;;;;10.00;9.50;;;;;;;14.70;76.55;98950.34;5068540;28;20130;-76
2022/04/11 07:35:12;;;;;;;8.47;8.07;;;;;;;14.48;76.29;98939.47;5063271;28;20411;-77
2022/04/11 07:37:39;;;;;;;8.17;7.47;;;;;;;14.48;76.55;98931.06;5069210;28;20131;-77
2022/04/11 07:40:07;;;;;;;8.47;8.00;;;;;;;14.48;76.68;98931.06;5051800;28;20067;-76
2022/04/11 07:42:33;;;;;;;7.93;7.53;;;;;;;14.43;76.73;98921.69;5063260;28;20732;-78
2022/04/11 07:45:01;;;;;;;7.70;7.30;;;;;;;14.89;76.66;98961.84;5043223;28;20144;-72
2022/04/11 07:47:27;;;;;;;9.37;8.77;;;;;;;14.92;76.58;98943.47;5069723;28;20182;-73
2022/04/11 07:49:54;;;;;;;9.20;8.50;;;;;;;14.85;76.80;98935.63;5065198;28;20060;-74
2022/04/11 07:52:22;;;;;;;8.23;7.83;;;;;;;14.85;76.79;98927.19;5064933;28;20106;-74
2022/04/11 07:54:49;;;;;;;8.00;7.50;;;;;;;14.82;76.69;98941.94;5063603;28;20153;-74
2022/04/11 07:57:19;;;;;;;8.67;8.07;;;;;;;14.74;76.39;98940.06;5065764;28;20139;-74
2022/04/11 08:00:06;;;;;;;8.32;7.82;;;;;;;14.86;76.51;98933.63;5062922;28;20521;-74
2022/04/11 08:02:34;;;;;;;7.27;6.87;;;;;;;14.88;76.30;98948.16;5066625;28;20314;-74
2022/04/11 08:05:03;;;;;;;7.90;7.40;;;;;;;15.09;76.46;98931.22;5066201;28;20088;-73
2022/04/11 08:07:30;;;;;;;7.27;6.87;;;;;;;14.87;76.22;98921.22;5048546;28;20564;-74
2022/04/11 08:09:56;;;;;;;8.00;7.50;;;;;;;15.25;76.45;98951.03;5068753;28;20514;-74
2022/04/11 08:12:23;;;;;;;7.97;7.47;;;;;;;15.55;76.43;98955.22;5070578;28;20234;-74
2022/04/11 08:14:50;;;;;;;7.80;7.40;;;;;;;15.28;76.04;98944.69;5064779;28;20144;-75
2022/04/11 08:17:17;;;;;;;9.60;8.82;;;;;;;15.39;75.92;98941.06;5071146;28;20134;-74
2022/04/11 08:19:44;;;;;;;11.27;10.10;;;;;;;15.27;75.57;98920.53;5062883;28;20044;-75
2022/04/11 08:22:12;;;;;;;7.65;6.95;;;;;;;15.51;75.58;98943.03;5066925;28;20132;-74
2022/04/11 08:24:39;;;;;;;9.00;8.38;;;;;;;15.61;75.28;98941.75;5067744;28;20064;-74
2022/04/11 08:27:06;;;;;;;8.13;7.63;;;;;;;15.67;75.08;98933.91;5051599;28;20053;-73
2022/04/11 08:29:33;;;;;;;7.10;6.65;;;;;;;15.67;74.88;98934.72;5070395;28;20448;-74
2022/04/11 08:31:59;;;;;;;7.65;7.13;;;;;;;15.60;74.49;98934.47;5067593;28;20139;-74
2022/04/11 08:34:26;;;;;;;7.32;6.82;;;;;;;15.68;74.12;98927.91;5067641;28;20139;-74
2022/04/11 08:36:53;;;;;;;7.50;7.00;;;;;;;15.69;73.56;98948.44;5072878;28;20080;-74
2022/04/11 08:39:23;;;;;;;7.80;7.30;;;;;;;15.80;73.50;98933.53;5066292;28;20094;-74
2022/04/11 08:41:52;;;;;;;6.68;6.30;;;;;;;15.83;73.71;98909.50;5062557;28;20133;-74
2022/04/11 08:44:19;;;;;;;6.90;6.50;;;;;;;16.08;73.33;98927.13;5069613;28;20040;-74
2022/04/11 08:46:48;;;;;;;7.15;6.75;;;;;;;16.19;72.97;98933.88;5063780;28;20181;-73
2022/04/11 08:49:15;;;;;;;7.73;7.37;;;;;;;16.31;72.75;98947.13;5067438;28;20139;-73
2022/04/11 08:51:42;;;;;;;6.60;6.20;;;;;;;16.44;72.40;98945.88;5063792;28;20311;-73
2022/04/11 08:54:11;;;;;;;7.10;6.50;;;;;;;16.49;72.50;98930.72;5064094;28;20139;-72
2022/04/11 08:56:38;;;;;;;8.20;7.65;;;;;;;16.64;72.54;98938.38;5063511;28;20048;-74
2022/04/11 08:59:04;;;;;;;6.97;6.57;;;;;;;16.56;72.85;98933.75;5064819;28;20467;-74
2022/04/11 09:01:34;;;;;;;6.57;5.97;;;;;;;16.69;72.85;98935.31;5052193;28;20138;-73
2022/04/11 09:04:04;;;;;;;6.80;6.35;;;;;;;16.74;73.02;98914.50;5052673;28;20041;-76
2022/04/11 09:06:33;;;;;;;6.43;5.90;;;;;;;16.82;72.91;98913.53;5073846;28;20092;-77
2022/04/11 09:09:00;;;;;;;8.77;8.18;;;;;;;16.84;73.30;98953.47;5069326;28;20072;-75
2022/04/11 09:11:35;;;;;;;7.07;6.50;;;;;;;16.36;72.33;98924.31;5062654;28;20049;-74
2022/04/11 09:14:06;;;;;;;9.20;8.70;;;;;;;16.44;72.85;98928.16;5050710;28;20049;-74
2022/04/11 09:16:48;;;;;;;10.30;9.50;;;;;;;16.31;72.23;98949.94;5065521;28;20099;-74
2022/04/11 09:19:27;;;;;;;6.80;6.40;;;;;;;16.45;72.55;98941.91;5066165;28;20055;-73
2022/04/11 09:22:29;;;;;;;6.32;6.03;;;;;;;16.31;71.80;98935.84;5066467;28;20044;-73
2022/04/11 09:25:10;;;;;;;7.55;7.15;;;;;;;16.39;72.37;98922.78;5067138;28;20075;-74
2022/04/11 09:27:37;;;;;;;8.55;7.97;;;;;;;16.42;71.95;98922.06;5063784;28;20075;-75
2022/04/11 09:30:26;;;;;;;10.38;9.77;;;;;;;16.72;72.59;98934.59;5062718;28;20048;-73
2022/04/11 09:33:05;;;;;;;7.93;7.38;;;;;;;16.89;72.79;98946.72;5059293;28;20424;-74
2022/04/11 09:35:37;;;;;;;9.13;8.57;;;;;;;16.68;72.47;98902.66;5068576;28;20728;-74
2022/04/11 09:38:09;;;;;;;8.23;7.43;;;;;;;16.71;72.90;98941.38;5064684;28;20080;-73
2022/04/11 09:40:37;;;;;;;7.45;6.90;;;;;;;16.44;72.95;98940.22;5048348;28;20161;-74
2022/04/11 09:43:04;;;;;;;7.65;7.20;;;;;;;16.01;73.63;98884.69;5064779;28;20147;-74
2022/04/11 09:45:31;;;;;;;8.40;7.60;;;;;;;16.39;73.53;98931.25;5052455;28;20073;-74
2022/04/11 09:48:03;;;;;;;7.70;7.30;;;;;;;16.46;72.43;98948.34;5090087;28;20040;-74
2022/04/11 09:50:31;;;;;;;6.55;6.25;;;;;;;16.39;72.37;98942.50;5086586;28;20049;-74
2022/04/11 09:53:22;;;;;;;8.85;8.45;;;;;;;15.85;72.43;98955.78;5070853;28;20053;-73
2022/04/11 09:55:51;;;;;;;6.45;1.15;;;;;;;15.30;72.82;98965.66;5072277;28;20056;-76
2022/04/11 09:58:23;;;;;;;2.85;0.60;;;;;;;14.57;74.86;98943.88;5077950;28;20053;-75
2022/04/11 10:00:51;;;;;;;1.37;1.00;;;;;;;14.24;76.55;98957.88;5064723;28;20109;-75
2022/04/11 10:03:22;;;;;;;1.58;1.48;;;;;;;13.91;78.01;98943.78;5060693;28;20049;-75
2022/04/11 10:05:50;;;;;;;5.67;1.30;;;;;;;13.70;79.80;98949.38;5062011;28;20052;-74
2022/04/11 10:08:18;;;;;;;3.03;1.00;;;;;;;13.62;80.36;98951.09;5064266;28;20135;-76
2022/04/11 10:10:45;;;;;;;1.23;1.10;;;;;;;13.51;80.87;98969.47;5065668;28;20059;-76
2022/04/11 10:13:14;;;;;;;6.47;0.67;;;;;;;13.41;81.36;98959.47;5061020;28;20049;-75
2022/04/11 10:15:45;;;;;;;4.23;2.13;;;;;;;13.18;81.38;98955.25;5065049;28;20450;-76
2022/04/11 10:18:15;;;;;;;1.50;0.63;;;;;;;13.21;81.92;98960.19;5062836;28;20078;-75
2022/04/11 10:20:49;;;;;;;4.35;1.70;;;;;;;13.28;81.96;98991.34;5049791;28;20121;-75
2022/04/11 10:23:45;;;;;;;1.30;0.53;;;;;;;13.08;82.55;98966.84;5062419;28;20221;-76
2022/04/11 10:26:14;;;;;;;4.27;1.07;;;;;;;13.15;83.04;98995.16;5050730;28;20079;-74
2022/04/11 10:28:47;;;;;;;8.45;0.95;;;;;;;13.10;83.27;98984.16;5029584;28;20131;-75
2022/04/11 10:31:15;;;;;;;1.87;0.80;;;;;;;13.04;83.32;98956.31;5065732;28;20044;-76
2022/04/11 10:33:55;;;;;;;2.67;1.00;;;;;;;13.07;83.65;98968.00;5066729;28;20415;-76
2022/04/11 10:36:34;;;;;;;3.75;0.77;;;;;;;12.94;83.58;98965.06;5059614;28;20132;-75
2022/04/11 10:39:13;;;;;;;1.03;0.63;;;;;;;13.24;82.70;98945.53;5042755;28;20077;-76
2022/04/11 10:41:58;;;;;;;2.30;0.80;;;;;;;13.30;82.29;98947.00;5062381;28;20059;-75
2022/04/11 10:44:33;;;;;;;29.67;27.30;;;;;;;13.18;82.24;98944.03;5060304;28;20483;-75
2022/04/11 10:47:09;;;;;;;25.83;24.13;;;;;;;13.07;82.46;98948.41;5060232;28;20502;-75
2022/04/11 10:49:48;;;;;;;24.60;23.20;;;;;;;13.04;82.55;98945.09;5061448;28;20080;-74
2022/04/11 10:52:31;;;;;;;23.33;21.33;;;;;;;12.99;82.55;98936.03;5068061;28;20091;-74
2022/04/11 10:55:11;;;;;;;22.10;20.80;;;;;;;12.90;82.75;98933.28;5067268;28;20044;-75
2022/04/11 10:57:43;;;;;;;22.30;20.77;;;;;;;12.72;83.18;98909.31;5066808;28;20105;-74
2022/04/11 11:00:14;;;;;;;20.43;19.23;;;;;;;12.92;83.01;98925.38;5068511;28;20908;-74
2022/04/11 11:02:53;;;;;;;18.00;17.10;;;;;;;12.74;83.36;98929.38;5070405;28;20147;-75
2022/04/11 11:05:23;;;;;;;22.23;20.70;;;;;;;12.73;83.42;98928.56;5062461;28;20554;-74
2022/04/11 11:08:11;;;;;;;;;;;;;;;12.81;83.58;98941.72;5069122;28;20164;-74
2022/04/11 11:10:45;;;;;;;17.27;15.93;;;;;;;12.90;83.53;98941.69;5069988;28;19924;-75
2022/04/11 11:13:41;;;;;;;18.23;16.30;;;;;;;12.91;83.51;98945.31;5072084;28;20045;-76
2022/04/11 11:16:08;;;;;;;17.53;16.17;;;;;;;13.05;83.41;98960.75;5066832;28;20052;-74
2022/04/11 11:18:50;;;;;;;17.80;16.60;;;;;;;13.12;83.44;98962.19;5067114;28;20048;-75
2022/04/11 11:21:44;;;;;;;18.83;16.20;;;;;;;13.13;83.41;98950.66;5066224;28;20041;-73
2022/04/11 11:24:12;;;;;;;17.63;16.63;;;;;;;13.08;83.32;98944.41;5070109;28;20063;-73
2022/04/11 11:26:47;;;;;;;24.47;22.63;;;;;;;13.07;83.36;98957.63;5067933;28;20044;-74
2022/04/11 11:29:15;;;;;;;20.27;19.17;;;;;;;13.03;83.80;98925.81;5066709;28;20073;-74
2022/04/11 11:31:43;;;;;;;23.03;21.20;;;;;;;13.03;83.88;98935.03;5064687;28;20127;-75
2022/04/11 11:34:12;;;;;;;21.83;20.00;;;;;;;13.12;84.06;98937.78;5066403;28;20053;-75
2022/04/11 11:36:40;;;;;;;20.33;19.07;;;;;;;13.24;84.21;98892.28;5061210;28;20048;-75
2022/04/11 11:39:19;;;;;;;22.83;21.20;;;;;;;13.73;84.90;98931.88;5062546;28;20052;-75